Time;durP1;ratioP1;P1;durP2;ratioP2;P2;SDS_P1;SDS_P2;PMS_P1;PMS_P2;Temp;Humidity;BMP_temperature;BMP_pressure;BME280_temperature;BME280_humidity;BME280_pressure;Samples;Min_cycle;Max_cycle;Signal;HPM_P1;HPM_P2
2022/03/19 00:00:58;;;;;;;26.23;10.80;;;2.80;60.00;;;;;;5052525;28;20247;-83
2022/03/19 00:03:26;;;;;;;32.47;12.93;;;2.80;99.90;;;;;;5052520;28;20246;-82
2022/03/19 00:05:52;;;;;;;28.10;12.97;;;2.70;99.90;;;;;;5052417;28;20650;-82
2022/03/19 00:08:20;;;;;;;27.33;12.03;;;2.60;99.90;;;;;;5052342;28;20184;-83
2022/03/19 00:10:47;;;;;;;28.20;12.60;;;2.60;99.90;;;;;;5052105;28;20251;-83
2022/03/19 00:13:14;;;;;;;25.97;12.37;;;2.50;99.90;;;;;;5052580;28;20197;-83
2022/03/19 00:15:43;;;;;;;29.67;11.80;;;2.50;99.90;;;;;;5052311;28;20196;-83
2022/03/19 00:18:10;;;;;;;34.47;12.80;;;2.50;1.00;;;;;;5052096;28;20197;-82
2022/03/19 00:20:38;;;;;;;28.73;11.90;;;2.50;1.00;;;;;;5052260;28;20220;-82
2022/03/19 00:23:06;;;;;;;37.83;13.70;;;2.40;1.00;;;;;;5052361;28;20246;-83
2022/03/19 00:25:33;;;;;;;25.43;12.13;;;2.40;1.00;;;;;;5051987;28;20252;-82
2022/03/19 00:28:00;;;;;;;31.37;12.03;;;2.30;1.00;;;;;;5052404;28;20200;-82
2022/03/19 00:30:27;;;;;;;33.83;13.73;;;2.30;1.00;;;;;;5052547;28;20254;-82
2022/03/19 00:32:56;;;;;;;29.97;13.20;;;2.20;1.00;;;;;;5052459;28;20196;-82
2022/03/19 00:35:23;;;;;;;32.00;13.40;;;2.20;1.00;;;;;;5051930;28;20192;-83
2022/03/19 00:37:53;;;;;;;28.17;13.13;;;2.20;1.00;;;;;;5051697;28;20282;-82
2022/03/19 00:40:23;;;;;;;26.27;12.50;;;2.10;1.00;;;;;;5052102;28;20220;-83
2022/03/19 00:42:50;;;;;;;31.83;13.33;;;2.10;1.00;;;;;;5051834;28;20291;-82
2022/03/19 00:45:17;;;;;;;28.93;13.03;;;2.10;1.00;;;;;;5051976;28;20196;-83
2022/03/19 00:47:44;;;;;;;29.30;12.17;;;2.00;1.00;;;;;;5051956;28;20200;-83
2022/03/19 00:50:13;;;;;;;32.07;11.90;;;2.00;1.00;;;;;;5051775;28;20534;-83
2022/03/19 00:52:40;;;;;;;26.93;12.07;;;1.90;1.00;;;;;;5052039;28;20199;-82
2022/03/19 00:55:09;;;;;;;27.83;12.30;;;1.80;1.00;;;;;;5052059;28;20201;-82
2022/03/19 00:57:39;;;;;;;28.53;12.37;;;1.70;1.00;;;;;;5052030;28;20250;-84
2022/03/19 01:00:11;;;;;;;27.03;12.47;;;1.60;1.00;;;;;;5052090;28;20201;-83
2022/03/19 01:02:39;;;;;;;31.87;13.73;;;1.50;1.00;;;;;;5052164;28;20227;-83
2022/03/19 01:05:07;;;;;;;26.67;12.43;;;1.50;1.00;;;;;;5052108;28;20586;-82
2022/03/19 01:07:41;;;;;;;30.70;13.03;;;1.40;1.00;;;;;;5051325;28;20554;-83
2022/03/19 01:10:10;;;;;;;30.07;13.70;;;1.30;1.00;;;;;;5055661;28;20241;-82
2022/03/19 01:12:37;;;;;;;33.10;13.73;;;1.30;1.00;;;;;;5055825;28;20204;-83
2022/03/19 01:15:05;;;;;;;29.87;14.17;;;1.20;1.00;;;;;;5055879;28;20188;-83
2022/03/19 01:17:32;;;;;;;29.30;13.63;;;1.10;1.00;;;;;;5055295;28;20618;-84
2022/03/19 01:20:01;;;;;;;35.53;15.73;;;1.00;1.00;;;;;;5055604;28;20616;-83
2022/03/19 01:22:28;;;;;;;33.10;15.00;;;1.00;1.00;;;;;;5055797;28;20224;-83
2022/03/19 01:24:57;;;;;;;34.83;16.47;;;1.00;1.00;;;;;;5055111;28;20192;-83
2022/03/19 01:27:24;;;;;;;39.73;16.37;;;0.90;1.00;;;;;;5055299;28;20193;-83
2022/03/19 01:29:51;;;;;;;49.07;18.40;;;0.80;1.00;;;;;;5055038;28;20250;-84
2022/03/19 01:32:18;;;;;;;37.63;17.97;;;0.90;22.60;;;;;;5054955;28;20582;-82
2022/03/19 01:34:45;;;;;;;41.30;19.37;;;0.80;55.20;;;;;;5055261;28;20193;-83
2022/03/19 01:37:12;;;;;;;46.93;22.23;;;0.80;75.40;;;;;;5054430;28;20661;-84
2022/03/19 01:39:39;;;;;;;51.77;24.07;;;0.80;99.90;;;;;;5054810;28;20185;-84
2022/03/19 01:42:08;;;;;;;55.40;24.47;;;0.90;99.90;;;;;;5055121;28;20192;-85
2022/03/19 01:44:35;;;;;;;60.93;23.00;;;1.00;99.90;;;;;;5055070;28;20242;-83
2022/03/19 01:47:04;;;;;;;57.93;25.17;;;1.00;1.00;;;;;;5054674;28;20251;-83
2022/03/19 01:49:32;;;;;;;54.73;25.37;;;1.10;1.00;;;;;;5055163;28;20250;-84
2022/03/19 01:51:59;;;;;;;45.73;23.13;;;1.10;1.00;;;;;;5054837;28;20331;-85
2022/03/19 01:54:29;;;;;;;52.27;23.97;;;1.10;99.90;;;;;;5054799;28;20661;-85
2022/03/19 01:56:58;;;;;;;54.07;24.57;;;1.00;99.90;;;;;;5054604;28;20239;-84
2022/03/19 01:59:32;;;;;;;60.33;25.37;;;1.00;99.90;;;;;;5054772;28;20627;-83
2022/03/19 02:02:00;;;;;;;52.87;23.63;;;0.90;99.90;;;;;;5054634;28;20254;-84
2022/03/19 02:04:27;;;;;;;53.07;24.70;;;0.90;99.90;;;;;;5054762;28;20204;-84
2022/03/19 02:06:55;;;;;;;57.23;26.30;;;0.80;99.90;;;;;;5054080;28;20606;-84
2022/03/19 02:09:23;;;;;;;55.30;26.23;;;0.80;99.90;;;;;;5054577;28;20247;-84
2022/03/19 02:11:50;;;;;;;57.53;28.57;;;0.80;99.90;;;;;;5054565;28;20204;-84
2022/03/19 02:14:17;;;;;;;51.07;25.10;;;0.70;99.90;;;;;;5054492;28;20208;-84
2022/03/19 02:16:45;;;;;;;53.07;25.63;;;0.70;99.90;;;;;;5054475;28;20266;-84
2022/03/19 02:19:13;;;;;;;52.03;24.13;;;0.70;99.90;;;;;;5053956;28;20242;-84
2022/03/19 02:21:41;;;;;;;54.73;23.07;;;0.70;99.90;;;;;;5054100;28;20286;-84
2022/03/19 02:26:55;;;;;;;53.07;21.33;;;0.70;1.00;;;;;;5054219;28;20180;-85
2022/03/19 02:29:22;;;;;;;52.93;20.90;;;0.70;1.00;;;;;;5054279;28;20196;-84
2022/03/19 02:31:51;;;;;;;52.20;20.37;;;0.80;1.00;;;;;;5053920;28;20200;-84
2022/03/19 02:34:18;;;;;;;45.77;17.27;;;0.80;1.00;;;;;;5053838;28;20196;-84
2022/03/19 02:36:46;;;;;;;62.50;18.50;;;0.80;1.00;;;;;;5053943;28;20185;-84
2022/03/19 02:39:17;;;;;;;88.33;18.73;;;0.80;1.00;;;;;;5053787;28;20218;-83
2022/03/19 02:41:44;;;;;;;169.00;22.73;;;0.80;1.00;;;;;;5053602;28;20219;-85
2022/03/19 02:44:13;;;;;;;115.30;20.50;;;0.90;1.00;;;;;;5054052;28;20189;-84
2022/03/19 02:46:42;;;;;;;89.00;19.47;;;0.90;34.80;;;;;;5053895;28;20246;-84
2022/03/19 02:49:09;;;;;;;150.30;20.63;;;0.90;92.30;;;;;;5054271;28;20212;-85
2022/03/19 02:51:37;;;;;;;82.07;18.00;;;0.90;61.10;;;;;;5053430;28;20192;-84
2022/03/19 02:54:06;;;;;;;103.47;21.47;;;1.00;99.90;;;;;;5054147;28;20246;-84
2022/03/19 02:56:35;;;;;;;85.53;18.07;;;1.00;99.90;;;;;;5053922;28;20204;-85
2022/03/19 02:59:07;;;;;;;78.50;18.40;;;0.90;99.90;;;;;;5054183;28;20192;-85
2022/03/19 03:01:34;;;;;;;59.20;19.03;;;1.00;99.90;;;;;;5053598;28;20219;-84
2022/03/19 03:04:01;;;;;;;95.27;19.23;;;1.00;99.90;;;;;;5053895;28;20242;-84
2022/03/19 03:06:29;;;;;;;142.67;21.60;;;1.00;99.90;;;;;;5053571;28;20261;-85
2022/03/19 03:08:56;;;;;;;90.40;18.77;;;1.00;99.90;;;;;;5053373;28;20554;-86
2022/03/19 03:11:23;;;;;;;96.40;21.37;;;0.90;99.90;;;;;;5053279;28;20204;-85
2022/03/19 03:13:52;;;;;;;67.80;17.13;;;1.00;99.90;;;;;;5053434;28;20189;-84
2022/03/19 03:16:19;;;;;;;122.57;21.47;;;1.00;99.90;;;;;;5053071;28;20193;-84
2022/03/19 03:18:47;;;;;;;112.77;20.90;;;1.00;99.90;;;;;;5053027;28;20200;-85
2022/03/19 03:21:14;;;;;;;95.40;21.40;;;1.00;99.90;;;;;;5053268;28;20208;-85
2022/03/19 03:23:41;;;;;;;97.77;20.30;;;1.00;99.90;;;;;;5052994;28;20208;-85
2022/03/19 03:26:08;;;;;;;94.00;20.03;;;1.00;99.90;;;;;;5052975;28;20255;-85
2022/03/19 03:28:35;;;;;;;75.93;18.60;;;1.00;1.00;;;;;;5053369;28;20197;-84
2022/03/19 03:31:04;;;;;;;83.30;19.27;;;1.00;1.00;;;;;;5052314;28;20203;-84
2022/03/19 03:33:31;;;;;;;96.47;20.33;;;1.00;1.00;;;;;;5052779;28;20197;-84
2022/03/19 03:35:58;;;;;;;109.87;20.80;;;1.10;1.00;;;;;;5052975;28;20258;-85
2022/03/19 03:38:25;;;;;;;106.63;20.53;;;1.10;1.00;;;;;;5052999;28;20559;-85
2022/03/19 03:40:52;;;;;;;94.50;21.27;;;1.10;1.00;;;;;;5052975;28;20217;-84
2022/03/19 03:43:19;;;;;;;90.70;19.87;;;1.10;1.00;;;;;;5053065;28;20204;-84
2022/03/19 03:45:47;;;;;;;103.30;22.33;;;1.10;1.00;;;;;;5052893;28;20188;-85
2022/03/19 03:48:15;;;;;;;106.33;22.33;;;1.10;1.00;;;;;;5052692;28;20199;-84
2022/03/19 03:50:42;;;;;;;139.90;22.67;;;1.10;1.00;;;;;;5052499;28;20250;-84
2022/03/19 03:53:10;;;;;;;131.40;22.77;;;1.20;1.00;;;;;;5052116;28;20234;-85
2022/03/19 03:55:38;;;;;;;124.43;23.53;;;1.20;1.00;;;;;;5052969;28;20192;-85
2022/03/19 03:58:08;;;;;;;101.47;22.07;;;1.20;1.00;;;;;;5052650;28;20251;-84
2022/03/19 04:00:35;;;;;;;90.30;20.50;;;1.20;1.00;;;;;;5052220;28;20254;-85
2022/03/19 04:03:03;;;;;;;67.60;18.87;;;1.10;1.00;;;;;;5052448;28;20706;-84
2022/03/19 04:05:33;;;;;;;71.20;19.60;;;1.20;1.00;;;;;;5052640;28;20200;-84
2022/03/19 04:08:01;;;;;;;83.07;18.90;;;1.10;1.00;;;;;;5052057;28;20188;-83
2022/03/19 04:10:28;;;;;;;73.00;17.87;;;1.10;1.00;;;;;;5052611;28;20200;-84
2022/03/19 04:12:55;;;;;;;83.43;17.80;;;1.20;1.00;;;;;;5052186;28;20611;-84
2022/03/19 04:15:22;;;;;;;66.37;17.03;;;1.20;1.00;;;;;;5052712;28;20192;-84
2022/03/19 04:17:49;;;;;;;64.40;16.73;;;1.20;1.00;;;;;;5052233;28;20200;-85
2022/03/19 04:20:16;;;;;;;54.67;15.37;;;1.20;1.00;;;;;;5052469;28;20196;-84
2022/03/19 04:22:46;;;;;;;69.03;18.50;;;1.20;1.00;;;;;;5051621;28;20224;-84
2022/03/19 04:25:15;;;;;;;76.80;19.10;;;1.20;1.00;;;;;;5052084;28;20730;-84
2022/03/19 04:27:43;;;;;;;89.60;20.40;;;1.30;38.60;;;;;;5052130;28;20192;-85
2022/03/19 04:30:13;;;;;;;67.40;19.23;;;1.30;99.90;;;;;;5052551;28;20246;-85
2022/03/19 04:32:41;;;;;;;83.97;20.03;;;1.30;99.90;;;;;;5052654;28;20398;-84
2022/03/19 04:37:51;;;;;;;81.37;19.83;;;1.20;1.00;;;;;;5051954;28;20231;-85
2022/03/19 04:40:18;;;;;;;77.70;19.83;;;1.20;1.00;;;;;;5051849;28;20597;-83
2022/03/19 04:42:45;;;;;;;92.73;19.73;;;1.20;1.00;;;;;;5053814;28;20216;-84
2022/03/19 04:45:13;;;;;;;99.83;21.53;;;1.20;80.50;;;;;;5056003;28;20743;-83
2022/03/19 04:47:40;;;;;;;89.10;19.70;;;1.20;99.90;;;;;;5056160;28;20188;-84
2022/03/19 04:50:07;;;;;;;110.33;23.10;;;1.20;99.90;;;;;;5056372;28;20196;-85
2022/03/19 04:52:35;;;;;;;111.33;23.57;;;1.20;99.90;;;;;;5055575;28;20201;-84
2022/03/19 04:55:04;;;;;;;99.27;20.17;;;1.30;1.00;;;;;;5055828;28;20258;-84
2022/03/19 04:57:32;;;;;;;100.60;21.80;;;1.20;1.00;;;;;;5055936;28;20196;-83
2022/03/19 04:59:59;;;;;;;136.30;23.83;;;1.30;3.20;;;;;;5055605;28;20185;-84
2022/03/19 05:02:26;;;;;;;134.37;23.50;;;1.20;99.90;;;;;;5055861;28;20224;-84
2022/03/19 05:04:54;;;;;;;125.90;23.63;;;1.20;1.00;;;;;;5055849;28;20386;-85
2022/03/19 05:07:21;;;;;;;142.03;24.00;;;1.20;17.00;;;;;;5055560;28;20193;-84
2022/03/19 05:12:37;;;;;;;111.77;21.77;;;1.20;99.90;;;;;;5055615;28;20259;-84
2022/03/19 05:15:05;;;;;;;124.47;22.80;;;1.20;1.00;;;;;;5055694;28;20220;-84
2022/03/19 05:17:32;;;;;;;141.03;23.37;;;1.20;1.00;;;;;;5055257;28;20192;-85
2022/03/19 05:19:59;;;;;;;116.40;22.90;;;1.10;1.00;;;;;;5063337;28;20197;-84
2022/03/19 05:22:26;;;;;;;117.63;23.27;;;1.10;99.90;;;;;;5055980;28;20216;-84
2022/03/19 05:24:53;;;;;;;122.90;21.87;;;1.20;99.90;;;;;;5055487;28;20200;-84
2022/03/19 05:27:22;;;;;;;141.87;22.97;;;1.10;1.00;;;;;;5060629;28;20196;-88
2022/03/19 05:29:54;;;;;;;162.20;24.73;;;1.20;1.00;;;;;;5061779;28;20660;-85
2022/03/19 05:32:22;;;;;;;115.57;21.07;;;1.20;1.00;;;;;;5060210;28;20203;-84
2022/03/19 05:34:49;;;;;;;141.03;21.63;;;1.30;1.00;;;;;;5057928;28;20197;-86
2022/03/19 05:37:17;;;;;;;133.70;21.13;;;1.30;1.00;;;;;;5059750;28;20215;-85
2022/03/19 05:39:45;;;;;;;112.03;22.07;;;1.30;9.90;;;;;;5057520;28;20560;-84
2022/03/19 05:42:12;;;;;;;132.77;24.37;;;1.30;99.90;;;;;;5056410;28;20221;-85
2022/03/19 05:44:40;;;;;;;156.90;24.97;;;1.30;99.90;;;;;;5059272;28;20330;-84
2022/03/19 05:47:11;;;;;;;124.73;22.53;;;1.40;1.00;;;;;;5057196;28;20192;-85
2022/03/19 05:49:40;;;;;;;118.60;23.10;;;1.40;1.00;;;;;;5056854;28;20177;-84
2022/03/19 05:52:07;;;;;;;100.83;22.00;;;1.40;1.00;;;;;;5056970;28;20197;-83
2022/03/19 05:54:36;;;;;;;113.37;23.97;;;1.50;1.00;;;;;;5055244;28;20250;-84
2022/03/19 05:57:03;;;;;;;100.03;24.47;;;1.50;1.00;;;;;;5057661;28;20212;-85
2022/03/19 05:59:30;;;;;;;67.63;18.03;;;1.60;1.00;;;;;;5059075;28;20652;-85
2022/03/19 06:01:57;;;;;;;67.13;17.73;;;1.60;99.90;;;;;;5058563;28;20219;-85
2022/03/19 06:04:26;;;;;;;66.47;19.27;;;1.60;99.90;;;;;;5057961;28;20196;-84
2022/03/19 06:07:00;;;;;;;69.27;20.17;;;1.70;99.90;;;;;;5061077;28;20540;-86
2022/03/19 06:09:28;;;;;;;74.13;20.10;;;1.70;99.90;;;;;;5058697;28;20196;-84
2022/03/19 06:11:55;;;;;;;68.00;19.73;;;1.80;99.90;;;;;;5062899;28;20192;-85
2022/03/19 06:14:22;;;;;;;70.97;19.80;;;1.80;99.90;;;;;;5061944;28;20192;-84
2022/03/19 06:16:50;;;;;;;64.33;16.97;;;1.90;99.90;;;;;;5060949;28;20176;-83
2022/03/19 06:19:17;;;;;;;60.50;17.30;;;1.90;1.00;;;;;;5061698;28;20283;-84
2022/03/19 06:21:46;;;;;;;75.13;18.60;;;2.00;1.00;;;;;;5060645;28;20212;-84
2022/03/19 06:24:13;;;;;;;60.23;17.57;;;2.00;1.00;;;;;;5059933;28;20196;-85
2022/03/19 06:26:40;;;;;;;72.37;19.10;;;2.00;1.00;;;;;;5058951;28;20255;-85
2022/03/19 06:29:07;;;;;;;71.70;18.93;;;2.10;1.00;;;;;;5057402;28;20762;-84
2022/03/19 06:31:34;;;;;;;71.53;17.50;;;2.10;1.00;;;;;;5056793;28;20201;-84
2022/03/19 06:34:10;;;;;;;59.07;16.87;;;2.20;1.00;;;;;;5056857;28;20545;-84
2022/03/19 06:39:22;;;;;;;59.13;17.03;;;2.20;99.90;;;;;;5054693;28;20668;-85
2022/03/19 06:41:49;;;;;;;59.57;18.17;;;2.20;99.90;;;;;;5056227;28;20270;-84
2022/03/19 06:44:30;;;;;;;51.60;16.07;;;2.30;1.00;;;;;;5056074;28;20192;-85
2022/03/19 06:46:57;;;;;;;59.23;17.80;;;2.30;99.90;;;;;;5057687;28;20276;-85
2022/03/19 06:49:26;;;;;;;52.13;17.00;;;2.40;99.90;;;;;;5054752;28;20599;-85
2022/03/19 06:51:53;;;;;;;52.53;16.37;;;2.40;1.00;;;;;;5059228;28;20219;-85
2022/03/19 06:54:19;;;;;;;49.47;15.73;;;2.40;1.00;;;;;;5055089;28;20193;-83
2022/03/19 06:56:48;;;;;;;38.80;13.27;;;2.50;1.00;;;;;;5055940;28;20201;-85
2022/03/19 06:59:15;;;;;;;41.10;15.10;;;2.50;99.90;;;;;;5054780;28;20242;-84
2022/03/19 07:01:42;;;;;;;39.77;13.77;;;2.60;99.90;;;;;;5057530;28;20216;-84
2022/03/19 07:04:09;;;;;;;51.63;17.13;;;2.60;1.00;;;;;;5054577;28;20200;-85
2022/03/19 07:06:36;;;;;;;48.90;15.10;;;2.60;99.90;;;;;;5057647;28;20198;-82
2022/03/19 07:09:12;;;;;;;43.77;15.53;;;2.70;99.90;;;;;;5056160;28;20242;-84
2022/03/19 07:11:39;;;;;;;44.33;15.63;;;2.80;1.00;;;;;;5054402;28;20561;-86
2022/03/19 07:14:10;;;;;;;40.70;13.40;;;2.90;99.90;;;;;;5054511;28;20195;-84
2022/03/19 07:16:37;;;;;;;34.60;14.90;;;3.00;1.00;;;;;;5056631;28;20180;-85
2022/03/19 07:19:05;;;;;;;35.50;14.70;;;3.00;99.90;;;;;;5056602;28;20283;-85
2022/03/19 07:21:32;;;;;;;35.50;15.30;;;3.00;1.00;;;;;;5059340;28;20224;-84
2022/03/19 07:23:59;;;;;;;37.63;14.53;;;3.10;99.90;;;;;;5058221;28;20200;-84
2022/03/19 07:26:27;;;;;;;32.40;12.53;;;3.20;1.00;;;;;;5056796;28;20193;-82
2022/03/19 07:28:54;;;;;;;30.17;13.03;;;3.30;1.00;;;;;;5060953;28;20287;-85
2022/03/19 07:31:23;;;;;;;31.33;12.80;;;3.40;1.00;;;;;;5060646;28;20281;-83
2022/03/19 07:33:50;;;;;;;28.33;13.13;;;3.50;99.90;;;;;;5060169;28;20582;-83
2022/03/19 07:36:21;;;;;;;26.87;11.30;;;3.60;1.00;;;;;;5064512;28;20206;-84
2022/03/19 07:38:49;;;;;;;28.77;12.57;;;3.80;99.90;;;;;;5061060;28;20233;-83
2022/03/19 07:44:01;;;;;;;23.40;10.23;;;4.00;1.00;;;;;;5057967;28;20641;-83
2022/03/19 07:46:34;;;;;;;19.93;8.07;;;4.00;1.00;;;;;;5057227;28;20198;-86
2022/03/19 07:49:02;;;;;;;25.80;10.10;;;4.00;99.90;;;;;;5058599;28;20230;-82
2022/03/19 07:51:29;;;;;;;22.07;10.90;;;4.10;1.00;;;;;;5055392;28;20227;-84
2022/03/19 07:53:56;;;;;;;22.43;9.33;;;4.00;1.00;;;;;;5070251;28;20183;-84
2022/03/19 07:56:24;;;;;;;21.03;10.00;;;4.10;99.90;;;;;;5052662;28;20197;-84
2022/03/19 07:58:51;;;;;;;23.30;13.63;;;4.10;99.90;;;;;;5055008;28;20244;-84
2022/03/19 08:01:19;;;;;;;25.20;10.13;;;4.10;99.90;;;;;;5065838;28;20221;-88
2022/03/19 08:03:48;;;;;;;21.83;9.20;;;4.10;99.90;;;;;;5060280;28;20221;-86
2022/03/19 08:06:27;;;;;;;21.73;10.03;;;4.20;99.90;;;;;;5060520;28;20200;-84
2022/03/19 08:08:54;;;;;;;21.40;9.60;;;4.20;19.90;;;;;;5054031;28;20608;-83
2022/03/19 08:11:21;;;;;;;20.17;9.57;;;4.20;9.00;;;;;;5057578;28;20204;-85
2022/03/19 08:13:48;;;;;;;19.97;9.30;;;4.40;1.00;;;;;;5062881;28;20198;-83
2022/03/19 08:16:15;;;;;;;21.23;8.90;;;4.50;1.00;;;;;;5058571;28;20187;-85
2022/03/19 08:18:43;;;;;;;20.67;9.60;;;4.60;1.00;;;;;;5054103;28;20265;-83
2022/03/19 08:21:12;;;;;;;23.97;11.10;;;4.70;1.00;;;;;;5056417;28;20212;-82
2022/03/19 08:23:42;;;;;;;24.50;10.17;;;4.80;99.90;;;;;;5053792;28;20605;-84
2022/03/19 08:26:11;;;;;;;23.33;9.50;;;4.90;1.00;;;;;;5056039;28;20199;-82
2022/03/19 08:28:38;;;;;;;16.97;9.17;;;4.90;1.00;;;;;;5055595;28;20244;-83
2022/03/19 08:31:05;;;;;;;16.30;7.70;;;4.90;1.00;;;;;;5054970;28;20707;-84
2022/03/19 08:33:33;;;;;;;16.50;8.10;;;5.00;1.00;;;;;;5054374;28;20224;-82
2022/03/19 08:36:00;;;;;;;20.27;9.23;;;5.10;1.00;;;;;;5055009;28;20197;-84
2022/03/19 08:41:27;;;;;;;23.63;10.17;;;5.70;1.00;;;;;;5011032;28;20244;-82
2022/03/19 08:43:54;;;;;;;17.73;8.87;;;6.00;1.00;;;;;;5012595;28;20660;-85
2022/03/19 08:46:21;;;;;;;19.73;9.33;;;6.40;1.00;;;;;;5033850;28;20204;-83
2022/03/19 08:48:48;;;;;;;17.67;9.20;;;6.80;99.90;;;;;;5058325;28;20194;-87
2022/03/19 08:54:07;;;;;;;15.33;7.90;;;7.70;1.00;;;;;;5058444;28;20208;-84
2022/03/19 08:56:34;;;;;;;14.40;7.60;;;7.60;99.90;;;;;;5059514;28;20249;-84
2022/03/19 08:59:02;;;;;;;13.97;7.50;;;7.60;1.00;;;;;;5061544;28;20196;-84
2022/03/19 09:01:29;;;;;;;17.03;7.03;;;7.70;99.90;;;;;;5061997;28;20201;-83
2022/03/19 09:03:56;;;;;;;17.83;8.03;;;7.90;1.00;;;;;;5060309;28;20200;-85
2022/03/19 09:06:27;;;;;;;15.30;7.07;;;8.20;99.90;;;;;;5056958;28;20199;-86
2022/03/19 09:08:54;;;;;;;15.17;8.10;;;8.90;99.90;;;;;;5055906;28;20165;-84
2022/03/19 09:11:23;;;;;;;14.47;7.50;;;9.50;1.00;;;;;;5057977;28;20199;-84
2022/03/19 09:13:53;;;;;;;15.40;7.67;;;10.10;1.00;;;;;;5062432;28;20538;-83
2022/03/19 09:16:20;;;;;;;11.13;6.20;;;10.10;99.90;;;;;;5060420;28;20562;-84
2022/03/19 09:18:50;;;;;;;15.87;8.37;;;10.00;99.90;;;;;;5055841;28;20190;-85
2022/03/19 09:21:18;;;;;;;13.77;7.17;;;10.00;99.90;;;;;;5057045;28;20175;-82
2022/03/19 09:23:45;;;;;;;14.00;6.40;;;9.90;99.90;;;;;;5057205;28;20259;-83
2022/03/19 09:26:13;;;;;;;22.23;15.30;;;9.90;99.90;;;;;;5053075;28;20614;-83
2022/03/19 09:28:41;;;;;;;13.10;6.60;;;10.00;99.90;;;;;;5053281;28;20189;-84
2022/03/19 09:31:11;;;;;;;14.13;7.03;;;10.40;99.90;;;;;;5058801;28;20240;-86
2022/03/19 09:33:39;;;;;;;15.13;7.80;;;11.00;99.90;;;;;;5057607;28;20199;-84
2022/03/19 09:36:06;;;;;;;14.10;6.30;;;11.20;90.70;;;;;;5057557;28;20246;-83
2022/03/19 09:38:37;;;;;;;12.73;6.23;;;10.90;78.60;;;;;;5057721;28;20278;-86
2022/03/19 09:41:04;;;;;;;14.20;7.53;;;10.90;99.90;;;;;;5056921;28;20183;-83
2022/03/19 09:43:31;;;;;;;17.03;8.03;;;10.80;90.60;;;;;;5058407;28;20217;-84
2022/03/19 09:45:59;;;;;;;15.80;7.70;;;10.60;3.20;;;;;;5058927;28;20196;-85
2022/03/19 09:48:26;;;;;;;18.47;7.00;;;10.30;97.20;;;;;;5058301;28;20173;-82
2022/03/19 09:50:55;;;;;;;12.60;6.93;;;10.70;99.90;;;;;;5060703;28;20194;-84
2022/03/19 09:53:24;;;;;;;12.70;8.40;;;10.90;65.50;;;;;;5048530;28;20197;-83
2022/03/19 09:55:53;;;;;;;14.83;8.67;;;11.00;26.30;;;;;;5061086;28;20183;-86
2022/03/19 09:58:20;;;;;;;11.67;6.57;;;11.10;1.00;;;;;;5063401;28;20620;-83
2022/03/19 10:00:47;;;;;;;14.90;8.13;;;11.00;1.00;;;;;;5060829;28;20188;-84
2022/03/19 10:03:22;;;;;;;15.50;8.90;;;11.00;4.50;;;;;;5064334;28;20217;-87
2022/03/19 10:08:37;;;;;;;15.30;9.00;;;10.80;1.00;;;;;;5047985;28;20193;-82
2022/03/19 10:11:04;;;;;;;14.60;8.23;;;10.60;1.00;;;;;;5058650;28;20167;-83
2022/03/19 10:13:32;;;;;;;12.23;7.47;;;10.60;1.00;;;;;;5057657;28;20197;-83
2022/03/19 10:15:59;;;;;;;14.80;6.97;;;10.40;1.00;;;;;;5055237;28;20196;-83
2022/03/19 10:18:32;;;;;;;16.43;9.80;;;10.40;5.90;;;;;;5061587;28;20200;-84
2022/03/19 10:21:01;;;;;;;16.77;9.00;;;10.30;1.00;;;;;;5057435;28;20193;-84
2022/03/19 10:23:32;;;;;;;18.03;10.60;;;10.20;15.00;;;;;;5056696;28;20232;-84
2022/03/19 10:26:00;;;;;;;19.10;10.57;;;10.30;14.90;;;;;;5055239;28;20190;-84
2022/03/19 10:28:30;;;;;;;16.37;8.53;;;10.40;19.30;;;;;;5057472;28;20198;-84
2022/03/19 10:30:58;;;;;;;16.70;8.50;;;10.50;10.80;;;;;;5058121;28;20187;-84
2022/03/19 10:33:27;;;;;;;16.63;9.50;;;10.40;3.40;;;;;;5059263;28;20235;-83
2022/03/19 10:36:07;;;;;;;16.43;10.67;;;10.20;1.00;;;;;;5054384;28;20288;-86
2022/03/19 10:38:43;;;;;;;15.00;9.57;;;10.00;9.00;;;;;;5058270;28;20219;-87
2022/03/19 10:41:11;;;;;;;20.03;10.30;;;10.00;11.70;;;;;;5049454;28;20191;-83
2022/03/19 10:43:39;;;;;;;19.07;11.60;;;10.10;1.00;;;;;;5058709;28;20217;-84
2022/03/19 10:46:06;;;;;;;20.77;12.10;;;10.10;3.50;;;;;;5055749;28;20722;-86
2022/03/19 10:48:33;;;;;;;16.53;10.57;;;10.20;8.60;;;;;;5055517;28;20198;-85
2022/03/19 10:51:01;;;;;;;19.00;10.90;;;10.20;14.60;;;;;;5058832;28;20212;-86
2022/03/19 10:53:36;;;;;;;18.67;11.70;;;10.20;5.30;;;;;;5063496;28;20193;-82
2022/03/19 10:56:06;;;;;;;19.63;11.10;;;10.30;1.00;;;;;;5061382;28;20188;-84
2022/03/19 10:58:34;;;;;;;20.93;10.60;;;10.30;1.00;;;;;;5063485;28;20628;-83
2022/03/19 11:01:01;;;;;;;18.17;9.77;;;10.30;1.00;;;;;;5058058;28;20191;-83
2022/03/19 11:03:35;;;;;;;21.37;10.50;;;10.40;1.00;;;;;;5057132;28;20212;-87
2022/03/19 11:06:05;;;;;;;21.40;12.73;;;10.40;1.00;;;;;;5057653;28;20189;-85
2022/03/19 11:08:38;;;;;;;16.53;10.43;;;10.50;1.00;;;;;;5059724;28;20261;-84
2022/03/19 11:11:11;;;;;;;17.47;11.13;;;10.50;1.00;;;;;;5058287;28;20175;-85
2022/03/19 11:13:43;;;;;;;18.10;10.07;;;10.50;1.00;;;;;;5054533;28;20277;-81
2022/03/19 11:16:12;;;;;;;19.27;12.73;;;10.40;1.00;;;;;;5060275;28;20600;-84
2022/03/19 11:18:40;;;;;;;19.37;12.37;;;10.40;1.00;;;;;;5066134;28;20192;-83
2022/03/19 11:21:10;;;;;;;17.67;11.23;;;10.40;1.00;;;;;;5053804;28;20285;-85
2022/03/19 11:23:51;;;;;;;18.10;12.70;;;10.40;1.00;;;;;;5068224;28;20198;-87
2022/03/19 11:26:24;;;;;;;17.87;12.90;;;10.50;1.00;;;;;;5076078;28;20177;-81
2022/03/19 11:28:52;;;;;;;15.13;11.13;;;10.60;1.00;;;;;;5056556;28;20180;-84
2022/03/19 11:31:26;;;;;;;19.80;13.90;;;10.60;1.00;;;;;;5055272;28;20218;-81
2022/03/19 11:33:59;;;;;;;21.83;13.93;;;10.60;1.00;;;;;;5055916;28;20636;-85
2022/03/19 11:36:26;;;;;;;21.67;13.60;;;10.60;1.00;;;;;;5055216;28;20187;-84
2022/03/19 11:38:56;;;;;;;20.73;13.50;;;10.60;1.00;;;;;;5056016;28;20228;-86
2022/03/19 11:41:26;;;;;;;23.80;14.13;;;10.70;1.00;;;;;;5054586;28;20582;-87
2022/03/19 11:44:20;;;;;;;21.47;14.37;;;10.80;1.00;;;;;;5055115;28;20317;-82
2022/03/19 11:46:58;;;;;;;19.87;12.23;;;10.80;1.00;;;;;;5057371;28;20287;-82
2022/03/19 11:49:56;;;;;;;22.83;12.77;;;10.80;1.00;;;;;;5057449;28;20210;-84
2022/03/19 11:53:00;;;;;;;24.10;15.93;;;10.80;1.00;;;;;;5041557;28;20192;-83
2022/03/19 11:55:29;;;;;;;24.50;17.03;;;10.90;1.00;;;;;;5037000;28;20194;-82
2022/03/19 11:58:00;;;;;;;22.70;13.97;;;11.00;1.00;;;;;;5052641;28;20289;-79
2022/03/19 12:00:31;;;;;;;22.13;14.47;;;11.10;1.00;;;;;;5072690;28;20193;-83
2022/03/19 12:03:12;;;;;;;19.87;14.37;;;11.10;1.00;;;;;;5057987;28;20188;-83
2022/03/19 12:05:41;;;;;;;23.03;15.57;;;11.10;1.00;;;;;;5059529;28;20196;-81
2022/03/19 12:08:12;;;;;;;24.97;15.83;;;11.10;1.00;;;;;;5055293;28;20260;-85
2022/03/19 12:10:59;;;;;;;29.03;16.60;;;11.20;1.00;;;;;;5056356;28;20636;-82
2022/03/19 12:13:47;;;;;;;21.53;15.00;;;11.10;1.00;;;;;;5054758;28;20224;-87
2022/03/19 12:16:35;;;;;;;22.43;16.93;;;11.20;1.00;;;;;;5051821;28;20184;-83
2022/03/19 12:19:02;;;;;;;24.00;15.87;;;11.30;1.00;;;;;;5063780;28;20271;-81
2022/03/19 12:21:37;;;;;;;26.60;16.40;;;11.30;1.00;;;;;;5055948;28;20533;-85
2022/03/19 12:24:26;;;;;;;23.10;16.10;;;11.30;1.00;;;;;;5053574;28;20275;-83
2022/03/19 12:26:56;;;;;;;24.13;14.10;;;11.40;1.00;;;;;;5053365;28;20186;-83
2022/03/19 12:29:25;;;;;;;27.67;16.03;;;11.30;1.00;;;;;;5051924;28;20191;-83
2022/03/19 12:31:54;;;;;;;23.53;17.27;;;11.30;1.00;;;;;;5053871;28;20225;-82
2022/03/19 12:34:23;;;;;;;25.17;16.47;;;11.30;1.00;;;;;;5053087;28;20204;-81
2022/03/19 12:36:51;;;;;;;27.23;16.30;;;11.30;1.00;;;;;;5051812;28;20204;-83
2022/03/19 12:39:19;;;;;;;24.67;15.53;;;11.30;1.00;;;;;;5067935;28;20196;-82
2022/03/19 12:41:46;;;;;;;23.43;15.40;;;11.20;1.00;;;;;;5054112;28;20215;-82
2022/03/19 12:44:21;;;;;;;22.43;15.20;;;11.20;1.00;;;;;;5054634;28;20224;-82
2022/03/19 12:46:56;;;;;;;21.23;14.00;;;11.20;1.00;;;;;;5053358;28;20180;-84
2022/03/19 12:49:24;;;;;;;21.40;15.53;;;11.20;1.00;;;;;;5060352;28;20193;-85
2022/03/19 12:51:52;;;;;;;21.40;15.23;;;11.30;1.00;;;;;;5055223;28;20200;-83
2022/03/19 12:54:21;;;;;;;25.13;14.77;;;11.30;1.00;;;;;;5055267;28;20193;-83
2022/03/19 12:56:56;;;;;;;24.60;16.33;;;11.30;1.00;;;;;;5058583;28;20653;-83
2022/03/19 12:59:35;;;;;;;22.00;15.77;;;11.30;1.00;;;;;;5062683;28;20191;-84
2022/03/19 13:02:02;;;;;;;19.90;14.23;;;11.30;1.00;;;;;;5055502;28;20267;-84
2022/03/19 13:04:32;;;;;;;25.53;15.03;;;11.30;1.00;;;;;;5061137;28;20216;-84
2022/03/19 13:07:05;;;;;;;22.53;14.47;;;11.20;1.00;;;;;;5065391;28;20184;-83
2022/03/19 13:09:34;;;;;;;20.37;12.60;;;11.30;1.00;;;;;;5056788;28;20186;-82
2022/03/19 13:12:03;;;;;;;21.60;14.33;;;11.20;1.00;;;;;;5056657;28;20187;-83